sensor_id;sensor_type;location;lat;lon;timestamp;P1;durP1;ratioP1;P2;durP2;ratioP2
3573;SDS011;1801;51.050;6.246;2024-02-04T00:01:23;15.17;;;6.87;;
3573;SDS011;1801;51.050;6.246;2024-02-04T00:03:49;10.83;;;5.70;;
3573;SDS011;1801;51.050;6.246;2024-02-04T00:06:14;14.57;;;7.87;;
3573;SDS011;1801;51.050;6.246;2024-02-04T00:08:39;9.20;;;3.90;;
3573;SDS011;1801;51.050;6.246;2024-02-04T00:11:04;11.67;;;5.87;;
3573;SDS011;1801;51.050;6.246;2024-02-04T00:13:32;11.97;;;5.87;;
3573;SDS011;1801;51.050;6.246;2024-02-04T00:15:57;16.93;;;6.33;;
3573;SDS011;1801;51.050;6.246;2024-02-04T00:18:23;8.73;;;5.10;;
3573;SDS011;1801;51.050;6.246;2024-02-04T00:20:49;8.07;;;4.90;;
3573;SDS011;1801;51.050;6.246;2024-02-04T00:23:14;9.03;;;4.70;;
3573;SDS011;1801;51.050;6.246;2024-02-04T00:25:39;11.43;;;5.90;;
3573;SDS011;1801;51.050;6.246;2024-02-04T00:28:06;6.90;;;3.50;;
3573;SDS011;1801;51.050;6.246;2024-02-04T00:30:31;7.37;;;4.50;;
3573;SDS011;1801;51.050;6.246;2024-02-04T00:32:56;8.50;;;4.90;;
3573;SDS011;1801;51.050;6.246;2024-02-04T00:35:27;7.70;;;4.77;;
3573;SDS011;1801;51.050;6.246;2024-02-04T00:37:53;9.60;;;4.80;;
3573;SDS011;1801;51.050;6.246;2024-02-04T00:40:18;8.97;;;5.03;;
3573;SDS011;1801;51.050;6.246;2024-02-04T00:42:43;6.70;;;4.07;;
3573;SDS011;1801;51.050;6.246;2024-02-04T00:45:08;7.10;;;3.87;;
3573;SDS011;1801;51.050;6.246;2024-02-04T00:47:34;8.10;;;4.40;;
3573;SDS011;1801;51.050;6.246;2024-02-04T00:49:59;7.73;;;4.73;;
3573;SDS011;1801;51.050;6.246;2024-02-04T00:52:24;8.03;;;4.40;;
3573;SDS011;1801;51.050;6.246;2024-02-04T00:54:49;9.90;;;3.70;;
3573;SDS011;1801;51.050;6.246;2024-02-04T00:57:14;5.10;;;3.67;;
3573;SDS011;1801;51.050;6.246;2024-02-04T00:59:40;4.30;;;2.97;;
3573;SDS011;1801;51.050;6.246;2024-02-04T01:02:05;8.40;;;4.20;;
3573;SDS011;1801;51.050;6.246;2024-02-04T01:04:31;8.77;;;4.60;;
3573;SDS011;1801;51.050;6.246;2024-02-04T01:06:56;6.17;;;4.10;;
3573;SDS011;1801;51.050;6.246;2024-02-04T01:09:21;6.27;;;3.53;;
3573;SDS011;1801;51.050;6.246;2024-02-04T01:11:47;6.97;;;4.57;;
3573;SDS011;1801;51.050;6.246;2024-02-04T01:14:12;8.10;;;3.60;;
3573;SDS011;1801;51.050;6.246;2024-02-04T01:16:37;7.23;;;4.47;;
3573;SDS011;1801;51.050;6.246;2024-02-04T01:19:02;7.77;;;4.10;;
3573;SDS011;1801;51.050;6.246;2024-02-04T01:21:28;5.33;;;3.40;;
3573;SDS011;1801;51.050;6.246;2024-02-04T01:23:53;8.70;;;4.40;;
3573;SDS011;1801;51.050;6.246;2024-02-04T01:26:19;4.23;;;2.70;;
3573;SDS011;1801;51.050;6.246;2024-02-04T01:28:44;4.57;;;2.73;;
3573;SDS011;1801;51.050;6.246;2024-02-04T01:31:09;6.43;;;4.07;;
3573;SDS011;1801;51.050;6.246;2024-02-04T01:33:34;7.30;;;4.63;;
3573;SDS011;1801;51.050;6.246;2024-02-04T01:35:59;5.73;;;3.40;;
3573;SDS011;1801;51.050;6.246;2024-02-04T01:38:24;5.47;;;3.30;;
3573;SDS011;1801;51.050;6.246;2024-02-04T01:40:50;5.73;;;3.07;;
3573;SDS011;1801;51.050;6.246;2024-02-04T01:43:17;7.60;;;3.03;;
3573;SDS011;1801;51.050;6.246;2024-02-04T01:45:42;11.47;;;3.63;;
3573;SDS011;1801;51.050;6.246;2024-02-04T01:48:08;5.57;;;3.10;;
3573;SDS011;1801;51.050;6.246;2024-02-04T01:50:33;8.80;;;3.50;;
3573;SDS011;1801;51.050;6.246;2024-02-04T01:52:59;7.00;;;3.40;;
3573;SDS011;1801;51.050;6.246;2024-02-04T01:55:24;10.00;;;3.47;;
3573;SDS011;1801;51.050;6.246;2024-02-04T01:57:49;7.17;;;3.90;;
3573;SDS011;1801;51.050;6.246;2024-02-04T02:00:15;5.80;;;3.53;;
3573;SDS011;1801;51.050;6.246;2024-02-04T02:02:40;7.20;;;3.37;;
3573;SDS011;1801;51.050;6.246;2024-02-04T02:05:06;3.93;;;2.47;;
3573;SDS011;1801;51.050;6.246;2024-02-04T02:07:32;3.50;;;2.50;;
3573;SDS011;1801;51.050;6.246;2024-02-04T02:09:57;11.70;;;3.50;;
3573;SDS011;1801;51.050;6.246;2024-02-04T02:12:24;5.63;;;3.27;;
3573;SDS011;1801;51.050;6.246;2024-02-04T02:14:53;8.00;;;3.70;;
3573;SDS011;1801;51.050;6.246;2024-02-04T02:17:20;6.73;;;3.37;;
3573;SDS011;1801;51.050;6.246;2024-02-04T02:19:52;5.27;;;3.10;;
3573;SDS011;1801;51.050;6.246;2024-02-04T02:22:25;9.67;;;3.50;;
3573;SDS011;1801;51.050;6.246;2024-02-04T02:24:51;5.80;;;3.60;;
3573;SDS011;1801;51.050;6.246;2024-02-04T02:27:17;8.20;;;4.30;;
3573;SDS011;1801;51.050;6.246;2024-02-04T02:29:42;8.47;;;4.20;;
3573;SDS011;1801;51.050;6.246;2024-02-04T02:32:07;7.40;;;3.93;;
3573;SDS011;1801;51.050;6.246;2024-02-04T02:34:32;8.60;;;3.90;;
3573;SDS011;1801;51.050;6.246;2024-02-04T02:37:07;7.50;;;4.00;;
3573;SDS011;1801;51.050;6.246;2024-02-04T02:39:40;6.90;;;4.00;;
3573;SDS011;1801;51.050;6.246;2024-02-04T02:42:07;10.47;;;4.80;;
3573;SDS011;1801;51.050;6.246;2024-02-04T02:44:34;7.67;;;4.40;;
3573;SDS011;1801;51.050;6.246;2024-02-04T02:46:59;9.50;;;4.80;;
3573;SDS011;1801;51.050;6.246;2024-02-04T02:49:26;8.80;;;4.50;;
3573;SDS011;1801;51.050;6.246;2024-02-04T02:51:51;8.00;;;4.87;;
3573;SDS011;1801;51.050;6.246;2024-02-04T02:54:17;7.50;;;4.30;;
3573;SDS011;1801;51.050;6.246;2024-02-04T02:56:43;11.67;;;5.20;;
3573;SDS011;1801;51.050;6.246;2024-02-04T02:59:08;6.33;;;3.80;;
3573;SDS011;1801;51.050;6.246;2024-02-04T03:01:33;7.33;;;4.67;;
3573;SDS011;1801;51.050;6.246;2024-02-04T03:03:58;7.10;;;3.67;;
3573;SDS011;1801;51.050;6.246;2024-02-04T03:06:23;8.80;;;5.23;;
3573;SDS011;1801;51.050;6.246;2024-02-04T03:08:49;9.13;;;4.67;;
3573;SDS011;1801;51.050;6.246;2024-02-04T03:11:15;9.43;;;4.70;;
3573;SDS011;1801;51.050;6.246;2024-02-04T03:13:40;9.47;;;4.50;;
3573;SDS011;1801;51.050;6.246;2024-02-04T03:16:11;10.90;;;4.97;;
3573;SDS011;1801;51.050;6.246;2024-02-04T03:18:39;9.13;;;4.50;;
3573;SDS011;1801;51.050;6.246;2024-02-04T03:21:04;19.73;;;6.53;;
3573;SDS011;1801;51.050;6.246;2024-02-04T03:23:29;12.70;;;5.60;;
3573;SDS011;1801;51.050;6.246;2024-02-04T03:25:54;12.20;;;6.10;;
3573;SDS011;1801;51.050;6.246;2024-02-04T03:28:20;8.60;;;4.67;;
3573;SDS011;1801;51.050;6.246;2024-02-04T03:30:45;13.87;;;5.50;;
3573;SDS011;1801;51.050;6.246;2024-02-04T03:33:10;9.13;;;4.20;;
3573;SDS011;1801;51.050;6.246;2024-02-04T03:35:35;7.27;;;4.30;;
3573;SDS011;1801;51.050;6.246;2024-02-04T03:38:02;9.47;;;4.30;;
3573;SDS011;1801;51.050;6.246;2024-02-04T03:40:27;10.17;;;5.40;;
3573;SDS011;1801;51.050;6.246;2024-02-04T03:42:52;7.00;;;3.70;;
3573;SDS011;1801;51.050;6.246;2024-02-04T03:45:17;7.63;;;4.60;;
3573;SDS011;1801;51.050;6.246;2024-02-04T03:47:43;11.10;;;5.30;;
3573;SDS011;1801;51.050;6.246;2024-02-04T03:50:08;9.27;;;4.20;;
3573;SDS011;1801;51.050;6.246;2024-02-04T03:52:33;8.20;;;5.23;;
3573;SDS011;1801;51.050;6.246;2024-02-04T03:54:58;11.73;;;5.60;;
3573;SDS011;1801;51.050;6.246;2024-02-04T03:57:24;6.90;;;4.30;;
3573;SDS011;1801;51.050;6.246;2024-02-04T03:59:50;7.20;;;4.07;;
3573;SDS011;1801;51.050;6.246;2024-02-04T04:02:15;9.93;;;4.33;;
3573;SDS011;1801;51.050;6.246;2024-02-04T04:04:40;11.73;;;4.63;;
3573;SDS011;1801;51.050;6.246;2024-02-04T04:07:12;8.73;;;3.67;;
3573;SDS011;1801;51.050;6.246;2024-02-04T04:09:37;13.53;;;6.40;;
3573;SDS011;1801;51.050;6.246;2024-02-04T04:12:02;12.03;;;4.90;;
3573;SDS011;1801;51.050;6.246;2024-02-04T04:14:28;10.77;;;5.43;;
3573;SDS011;1801;51.050;6.246;2024-02-04T04:16:53;17.23;;;8.27;;
3573;SDS011;1801;51.050;6.246;2024-02-04T04:19:18;16.07;;;7.10;;
3573;SDS011;1801;51.050;6.246;2024-02-04T04:21:43;19.87;;;7.27;;
3573;SDS011;1801;51.050;6.246;2024-02-04T04:24:08;16.33;;;6.80;;
3573;SDS011;1801;51.050;6.246;2024-02-04T04:26:34;24.93;;;8.10;;
3573;SDS011;1801;51.050;6.246;2024-02-04T04:28:59;13.70;;;6.93;;
3573;SDS011;1801;51.050;6.246;2024-02-04T04:31:24;21.87;;;8.80;;
3573;SDS011;1801;51.050;6.246;2024-02-04T04:33:49;23.73;;;8.20;;
3573;SDS011;1801;51.050;6.246;2024-02-04T04:36:15;20.30;;;8.33;;
3573;SDS011;1801;51.050;6.246;2024-02-04T04:38:40;17.30;;;9.07;;
3573;SDS011;1801;51.050;6.246;2024-02-04T04:41:05;15.77;;;8.03;;
3573;SDS011;1801;51.050;6.246;2024-02-04T04:43:30;17.10;;;8.57;;
3573;SDS011;1801;51.050;6.246;2024-02-04T04:45:55;19.33;;;8.63;;
3573;SDS011;1801;51.050;6.246;2024-02-04T04:48:21;27.57;;;9.87;;
3573;SDS011;1801;51.050;6.246;2024-02-04T04:50:46;23.00;;;8.70;;
3573;SDS011;1801;51.050;6.246;2024-02-04T04:53:11;16.80;;;8.37;;
3573;SDS011;1801;51.050;6.246;2024-02-04T04:55:36;18.23;;;8.90;;
3573;SDS011;1801;51.050;6.246;2024-02-04T04:58:01;15.77;;;8.10;;
3573;SDS011;1801;51.050;6.246;2024-02-04T05:00:27;18.67;;;8.23;;
3573;SDS011;1801;51.050;6.246;2024-02-04T05:02:52;17.83;;;7.80;;
3573;SDS011;1801;51.050;6.246;2024-02-04T05:05:17;21.80;;;9.70;;
3573;SDS011;1801;51.050;6.246;2024-02-04T05:07:42;20.17;;;8.33;;
3573;SDS011;1801;51.050;6.246;2024-02-04T05:10:07;17.63;;;7.03;;
3573;SDS011;1801;51.050;6.246;2024-02-04T05:12:33;18.53;;;8.50;;
3573;SDS011;1801;51.050;6.246;2024-02-04T05:14:58;14.17;;;7.20;;
3573;SDS011;1801;51.050;6.246;2024-02-04T05:17:24;17.33;;;7.00;;
3573;SDS011;1801;51.050;6.246;2024-02-04T05:19:49;16.87;;;7.23;;
3573;SDS011;1801;51.050;6.246;2024-02-04T05:22:14;14.73;;;6.27;;
3573;SDS011;1801;51.050;6.246;2024-02-04T05:24:40;18.13;;;7.03;;
3573;SDS011;1801;51.050;6.246;2024-02-04T05:27:05;19.53;;;7.00;;
3573;SDS011;1801;51.050;6.246;2024-02-04T05:29:31;12.70;;;5.10;;
3573;SDS011;1801;51.050;6.246;2024-02-04T05:31:56;14.50;;;5.67;;
3573;SDS011;1801;51.050;6.246;2024-02-04T05:34:22;12.57;;;6.80;;
3573;SDS011;1801;51.050;6.246;2024-02-04T05:36:47;13.30;;;5.60;;
3573;SDS011;1801;51.050;6.246;2024-02-04T05:39:13;19.33;;;7.30;;
3573;SDS011;1801;51.050;6.246;2024-02-04T05:41:39;19.90;;;6.70;;
3573;SDS011;1801;51.050;6.246;2024-02-04T05:44:04;15.33;;;6.00;;
3573;SDS011;1801;51.050;6.246;2024-02-04T05:46:29;15.37;;;7.20;;
3573;SDS011;1801;51.050;6.246;2024-02-04T05:48:54;12.53;;;6.70;;
3573;SDS011;1801;51.050;6.246;2024-02-04T05:51:21;12.07;;;6.63;;
3573;SDS011;1801;51.050;6.246;2024-02-04T05:53:46;13.17;;;5.70;;
3573;SDS011;1801;51.050;6.246;2024-02-04T05:56:12;11.73;;;5.77;;
3573;SDS011;1801;51.050;6.246;2024-02-04T05:58:37;11.20;;;5.80;;
3573;SDS011;1801;51.050;6.246;2024-02-04T06:01:02;12.33;;;5.60;;
3573;SDS011;1801;51.050;6.246;2024-02-04T06:03:28;11.23;;;5.80;;
3573;SDS011;1801;51.050;6.246;2024-02-04T06:05:53;12.40;;;6.37;;
3573;SDS011;1801;51.050;6.246;2024-02-04T06:08:18;13.33;;;4.17;;
3573;SDS011;1801;51.050;6.246;2024-02-04T06:10:43;9.97;;;5.50;;
3573;SDS011;1801;51.050;6.246;2024-02-04T06:13:08;10.60;;;4.97;;
3573;SDS011;1801;51.050;6.246;2024-02-04T06:15:34;9.30;;;4.23;;
3573;SDS011;1801;51.050;6.246;2024-02-04T06:18:00;8.27;;;3.83;;
3573;SDS011;1801;51.050;6.246;2024-02-04T06:20:25;6.83;;;3.30;;
3573;SDS011;1801;51.050;6.246;2024-02-04T06:22:51;7.13;;;4.27;;
3573;SDS011;1801;51.050;6.246;2024-02-04T06:25:16;10.53;;;3.47;;
3573;SDS011;1801;51.050;6.246;2024-02-04T06:27:41;11.40;;;4.93;;
3573;SDS011;1801;51.050;6.246;2024-02-04T06:30:06;6.23;;;3.37;;
3573;SDS011;1801;51.050;6.246;2024-02-04T06:32:31;6.10;;;3.30;;
3573;SDS011;1801;51.050;6.246;2024-02-04T06:34:57;6.97;;;3.53;;
3573;SDS011;1801;51.050;6.246;2024-02-04T06:37:23;13.57;;;3.83;;
3573;SDS011;1801;51.050;6.246;2024-02-04T06:39:48;6.50;;;3.63;;
3573;SDS011;1801;51.050;6.246;2024-02-04T06:42:13;4.73;;;2.60;;
3573;SDS011;1801;51.050;6.246;2024-02-04T06:44:38;6.53;;;3.00;;
3573;SDS011;1801;51.050;6.246;2024-02-04T06:47:03;9.80;;;4.17;;
3573;SDS011;1801;51.050;6.246;2024-02-04T06:49:29;4.90;;;2.90;;
3573;SDS011;1801;51.050;6.246;2024-02-04T06:51:54;12.33;;;4.20;;
3573;SDS011;1801;51.050;6.246;2024-02-04T06:54:22;7.17;;;3.33;;
3573;SDS011;1801;51.050;6.246;2024-02-04T06:56:47;6.43;;;3.43;;
3573;SDS011;1801;51.050;6.246;2024-02-04T06:59:13;6.00;;;2.53;;
3573;SDS011;1801;51.050;6.246;2024-02-04T07:01:38;3.50;;;2.50;;
3573;SDS011;1801;51.050;6.246;2024-02-04T07:04:03;4.00;;;2.40;;
3573;SDS011;1801;51.050;6.246;2024-02-04T07:06:28;4.10;;;2.30;;
3573;SDS011;1801;51.050;6.246;2024-02-04T07:08:53;2.93;;;1.60;;
3573;SDS011;1801;51.050;6.246;2024-02-04T07:11:19;3.10;;;2.00;;
3573;SDS011;1801;51.050;6.246;2024-02-04T07:13:44;4.67;;;2.37;;
3573;SDS011;1801;51.050;6.246;2024-02-04T07:16:09;4.70;;;1.80;;
3573;SDS011;1801;51.050;6.246;2024-02-04T07:18:34;1.47;;;1.30;;
3573;SDS011;1801;51.050;6.246;2024-02-04T07:20:59;4.00;;;1.47;;
3573;SDS011;1801;51.050;6.246;2024-02-04T07:23:25;1.93;;;1.13;;
3573;SDS011;1801;51.050;6.246;2024-02-04T07:25:50;2.20;;;1.30;;
3573;SDS011;1801;51.050;6.246;2024-02-04T07:28:15;3.23;;;1.80;;
3573;SDS011;1801;51.050;6.246;2024-02-04T07:30:40;3.80;;;1.57;;
3573;SDS011;1801;51.050;6.246;2024-02-04T07:33:05;2.33;;;1.30;;
3573;SDS011;1801;51.050;6.246;2024-02-04T07:35:31;3.20;;;1.60;;
3573;SDS011;1801;51.050;6.246;2024-02-04T07:37:56;2.43;;;1.50;;
3573;SDS011;1801;51.050;6.246;2024-02-04T07:40:21;3.83;;;2.00;;
3573;SDS011;1801;51.050;6.246;2024-02-04T07:42:47;3.03;;;1.50;;
3573;SDS011;1801;51.050;6.246;2024-02-04T07:45:12;2.63;;;2.00;;
3573;SDS011;1801;51.050;6.246;2024-02-04T07:47:37;4.43;;;2.70;;
3573;SDS011;1801;51.050;6.246;2024-02-04T07:50:02;3.70;;;2.30;;
3573;SDS011;1801;51.050;6.246;2024-02-04T07:52:28;3.90;;;2.40;;
3573;SDS011;1801;51.050;6.246;2024-02-04T07:54:53;4.80;;;2.97;;
3573;SDS011;1801;51.050;6.246;2024-02-04T07:57:18;3.00;;;1.83;;
3573;SDS011;1801;51.050;6.246;2024-02-04T07:59:43;5.20;;;2.60;;
3573;SDS011;1801;51.050;6.246;2024-02-04T08:02:08;5.63;;;2.70;;
3573;SDS011;1801;51.050;6.246;2024-02-04T08:04:34;5.93;;;2.20;;
3573;SDS011;1801;51.050;6.246;2024-02-04T08:06:59;5.97;;;3.03;;
3573;SDS011;1801;51.050;6.246;2024-02-04T08:09:24;7.10;;;2.87;;
3573;SDS011;1801;51.050;6.246;2024-02-04T08:11:49;6.30;;;3.07;;
3573;SDS011;1801;51.050;6.246;2024-02-04T08:14:14;7.37;;;3.20;;
3573;SDS011;1801;51.050;6.246;2024-02-04T08:16:40;4.50;;;2.30;;
3573;SDS011;1801;51.050;6.246;2024-02-04T08:19:05;5.10;;;3.00;;
3573;SDS011;1801;51.050;6.246;2024-02-04T08:21:31;12.13;;;3.97;;
3573;SDS011;1801;51.050;6.246;2024-02-04T08:23:57;7.40;;;2.90;;
3573;SDS011;1801;51.050;6.246;2024-02-04T08:26:22;10.77;;;4.70;;
3573;SDS011;1801;51.050;6.246;2024-02-04T08:28:47;5.53;;;2.83;;
3573;SDS011;1801;51.050;6.246;2024-02-04T08:31:13;8.43;;;3.67;;
3573;SDS011;1801;51.050;6.246;2024-02-04T08:33:38;8.23;;;3.20;;
3573;SDS011;1801;51.050;6.246;2024-02-04T08:36:03;8.63;;;2.37;;
3573;SDS011;1801;51.050;6.246;2024-02-04T08:38:30;3.43;;;2.03;;
3573;SDS011;1801;51.050;6.246;2024-02-04T08:40:55;6.10;;;2.60;;
3573;SDS011;1801;51.050;6.246;2024-02-04T08:43:20;5.70;;;2.60;;
3573;SDS011;1801;51.050;6.246;2024-02-04T08:45:45;3.83;;;2.37;;
3573;SDS011;1801;51.050;6.246;2024-02-04T08:48:10;4.23;;;2.20;;
3573;SDS011;1801;51.050;6.246;2024-02-04T08:50:36;4.30;;;2.73;;
3573;SDS011;1801;51.050;6.246;2024-02-04T08:53:01;4.87;;;2.30;;
3573;SDS011;1801;51.050;6.246;2024-02-04T08:55:26;2.73;;;1.93;;
3573;SDS011;1801;51.050;6.246;2024-02-04T08:57:51;2.77;;;1.73;;
3573;SDS011;1801;51.050;6.246;2024-02-04T09:00:18;2.70;;;1.63;;
3573;SDS011;1801;51.050;6.246;2024-02-04T09:02:43;2.00;;;1.30;;
3573;SDS011;1801;51.050;6.246;2024-02-04T09:05:08;2.33;;;1.57;;
3573;SDS011;1801;51.050;6.246;2024-02-04T09:07:34;6.37;;;2.80;;
3573;SDS011;1801;51.050;6.246;2024-02-04T09:09:59;6.63;;;2.40;;
3573;SDS011;1801;51.050;6.246;2024-02-04T09:12:24;5.70;;;2.73;;
3573;SDS011;1801;51.050;6.246;2024-02-04T09:14:49;5.70;;;1.97;;
3573;SDS011;1801;51.050;6.246;2024-02-04T09:17:15;5.03;;;2.90;;
3573;SDS011;1801;51.050;6.246;2024-02-04T09:19:40;4.10;;;2.20;;
3573;SDS011;1801;51.050;6.246;2024-02-04T09:22:05;3.17;;;2.03;;
3573;SDS011;1801;51.050;6.246;2024-02-04T09:24:30;11.33;;;4.40;;
3573;SDS011;1801;51.050;6.246;2024-02-04T09:26:55;6.30;;;2.90;;
3573;SDS011;1801;51.050;6.246;2024-02-04T09:29:21;6.47;;;3.00;;
3573;SDS011;1801;51.050;6.246;2024-02-04T09:31:46;5.30;;;3.10;;
3573;SDS011;1801;51.050;6.246;2024-02-04T09:34:11;8.80;;;3.10;;
3573;SDS011;1801;51.050;6.246;2024-02-04T09:36:36;10.90;;;4.57;;
3573;SDS011;1801;51.050;6.246;2024-02-04T09:39:02;7.13;;;3.00;;
3573;SDS011;1801;51.050;6.246;2024-02-04T09:41:27;5.97;;;3.30;;
3573;SDS011;1801;51.050;6.246;2024-02-04T09:43:52;6.00;;;3.27;;
3573;SDS011;1801;51.050;6.246;2024-02-04T09:46:18;3.53;;;2.13;;
3573;SDS011;1801;51.050;6.246;2024-02-04T09:48:44;8.03;;;3.67;;
3573;SDS011;1801;51.050;6.246;2024-02-04T09:51:09;7.50;;;4.17;;
3573;SDS011;1801;51.050;6.246;2024-02-04T09:53:35;9.60;;;4.10;;
3573;SDS011;1801;51.050;6.246;2024-02-04T09:56:03;7.93;;;3.47;;
3573;SDS011;1801;51.050;6.246;2024-02-04T09:58:31;13.70;;;5.23;;
3573;SDS011;1801;51.050;6.246;2024-02-04T10:00:56;8.60;;;3.77;;
3573;SDS011;1801;51.050;6.246;2024-02-04T10:03:22;9.40;;;4.37;;
3573;SDS011;1801;51.050;6.246;2024-02-04T10:05:47;7.70;;;4.07;;
3573;SDS011;1801;51.050;6.246;2024-02-04T10:08:13;10.40;;;4.80;;
3573;SDS011;1801;51.050;6.246;2024-02-04T10:10:39;7.70;;;3.70;;
3573;SDS011;1801;51.050;6.246;2024-02-04T10:13:10;9.83;;;4.70;;
3573;SDS011;1801;51.050;6.246;2024-02-04T10:15:35;8.50;;;3.40;;
3573;SDS011;1801;51.050;6.246;2024-02-04T10:18:04;7.43;;;3.20;;
3573;SDS011;1801;51.050;6.246;2024-02-04T10:20:30;11.10;;;3.90;;
3573;SDS011;1801;51.050;6.246;2024-02-04T10:22:55;18.80;;;4.83;;
3573;SDS011;1801;51.050;6.246;2024-02-04T10:25:21;10.87;;;4.70;;
3573;SDS011;1801;51.050;6.246;2024-02-04T10:27:46;9.80;;;4.20;;
3573;SDS011;1801;51.050;6.246;2024-02-04T10:30:12;14.93;;;4.40;;
3573;SDS011;1801;51.050;6.246;2024-02-04T10:32:37;11.73;;;4.10;;
3573;SDS011;1801;51.050;6.246;2024-02-04T10:35:02;8.93;;;3.30;;
3573;SDS011;1801;51.050;6.246;2024-02-04T10:37:28;10.37;;;4.30;;
3573;SDS011;1801;51.050;6.246;2024-02-04T10:39:53;9.47;;;4.00;;
3573;SDS011;1801;51.050;6.246;2024-02-04T10:42:20;9.00;;;3.53;;
3573;SDS011;1801;51.050;6.246;2024-02-04T10:44:48;9.80;;;3.20;;
3573;SDS011;1801;51.050;6.246;2024-02-04T10:47:14;7.43;;;3.77;;
3573;SDS011;1801;51.050;6.246;2024-02-04T10:49:42;11.83;;;4.50;;
3573;SDS011;1801;51.050;6.246;2024-02-04T10:52:11;15.90;;;5.27;;
3573;SDS011;1801;51.050;6.246;2024-02-04T10:54:38;11.27;;;4.43;;
3573;SDS011;1801;51.050;6.246;2024-02-04T10:57:05;8.00;;;3.70;;
3573;SDS011;1801;51.050;6.246;2024-02-04T10:59:31;10.60;;;3.33;;
3573;SDS011;1801;51.050;6.246;2024-02-04T11:01:57;21.23;;;4.50;;
3573;SDS011;1801;51.050;6.246;2024-02-04T11:04:22;10.13;;;4.30;;
3573;SDS011;1801;51.050;6.246;2024-02-04T11:06:48;12.73;;;4.40;;
3573;SDS011;1801;51.050;6.246;2024-02-04T11:09:14;9.80;;;3.83;;
3573;SDS011;1801;51.050;6.246;2024-02-04T11:11:39;11.17;;;4.10;;
3573;SDS011;1801;51.050;6.246;2024-02-04T11:14:06;7.93;;;4.13;;
3573;SDS011;1801;51.050;6.246;2024-02-04T11:27:02;15.37;;;3.83;;
3573;SDS011;1801;51.050;6.246;2024-02-04T11:29:28;9.27;;;3.60;;
3573;SDS011;1801;51.050;6.246;2024-02-04T11:31:53;4.70;;;2.90;;
3573;SDS011;1801;51.050;6.246;2024-02-04T11:34:18;5.93;;;3.30;;
3573;SDS011;1801;51.050;6.246;2024-02-04T11:36:43;10.83;;;4.03;;
3573;SDS011;1801;51.050;6.246;2024-02-04T11:39:13;6.07;;;3.30;;
3573;SDS011;1801;51.050;6.246;2024-02-04T11:41:48;7.83;;;4.10;;
3573;SDS011;1801;51.050;6.246;2024-02-04T11:44:23;10.60;;;3.93;;
3573;SDS011;1801;51.050;6.246;2024-02-04T11:46:49;7.20;;;3.73;;
3573;SDS011;1801;51.050;6.246;2024-02-04T11:49:18;6.30;;;3.10;;
3573;SDS011;1801;51.050;6.246;2024-02-04T11:51:47;8.13;;;4.90;;
3573;SDS011;1801;51.050;6.246;2024-02-04T11:54:16;9.03;;;3.30;;
3573;SDS011;1801;51.050;6.246;2024-02-04T11:56:41;8.90;;;3.70;;
3573;SDS011;1801;51.050;6.246;2024-02-04T11:59:07;4.13;;;2.83;;
3573;SDS011;1801;51.050;6.246;2024-02-04T12:01:32;4.43;;;3.23;;
3573;SDS011;1801;51.050;6.246;2024-02-04T12:04:08;3.97;;;2.80;;
3573;SDS011;1801;51.050;6.246;2024-02-04T12:06:33;5.40;;;3.00;;
3573;SDS011;1801;51.050;6.246;2024-02-04T12:08:59;4.53;;;2.80;;
3573;SDS011;1801;51.050;6.246;2024-02-04T12:11:25;5.27;;;2.50;;
3573;SDS011;1801;51.050;6.246;2024-02-04T12:13:50;7.50;;;2.70;;
3573;SDS011;1801;51.050;6.246;2024-02-04T12:16:16;5.47;;;2.90;;
3573;SDS011;1801;51.050;6.246;2024-02-04T12:18:47;4.83;;;2.90;;
3573;SDS011;1801;51.050;6.246;2024-02-04T12:21:13;3.70;;;2.40;;
3573;SDS011;1801;51.050;6.246;2024-02-04T12:23:39;7.27;;;3.00;;
3573;SDS011;1801;51.050;6.246;2024-02-04T12:26:04;3.77;;;2.60;;
3573;SDS011;1801;51.050;6.246;2024-02-04T12:28:29;7.07;;;3.27;;
3573;SDS011;1801;51.050;6.246;2024-02-04T12:30:54;6.67;;;3.80;;
3573;SDS011;1801;51.050;6.246;2024-02-04T12:33:20;9.60;;;4.53;;
3573;SDS011;1801;51.050;6.246;2024-02-04T12:35:48;7.80;;;3.93;;
3573;SDS011;1801;51.050;6.246;2024-02-04T12:38:15;7.33;;;4.27;;
3573;SDS011;1801;51.050;6.246;2024-02-04T12:54:53;10.20;;;5.30;;
3573;SDS011;1801;51.050;6.246;2024-02-04T12:57:22;8.30;;;5.20;;
3573;SDS011;1801;51.050;6.246;2024-02-04T12:59:50;11.23;;;4.70;;
3573;SDS011;1801;51.050;6.246;2024-02-04T13:02:15;4.20;;;3.33;;
3573;SDS011;1801;51.050;6.246;2024-02-04T13:04:41;11.70;;;3.60;;
3573;SDS011;1801;51.050;6.246;2024-02-04T13:07:10;12.40;;;4.80;;
3573;SDS011;1801;51.050;6.246;2024-02-04T13:09:42;12.93;;;4.23;;
3573;SDS011;1801;51.050;6.246;2024-02-04T13:12:08;8.37;;;4.10;;
3573;SDS011;1801;51.050;6.246;2024-02-04T13:14:34;12.23;;;4.80;;
3573;SDS011;1801;51.050;6.246;2024-02-04T13:16:59;11.60;;;2.90;;
3573;SDS011;1801;51.050;6.246;2024-02-04T13:19:24;5.93;;;2.60;;
3573;SDS011;1801;51.050;6.246;2024-02-04T13:21:49;5.27;;;3.57;;
3573;SDS011;1801;51.050;6.246;2024-02-04T13:24:14;4.87;;;4.33;;
3573;SDS011;1801;51.050;6.246;2024-02-04T13:26:40;5.30;;;4.00;;
3573;SDS011;1801;51.050;6.246;2024-02-04T13:29:05;14.43;;;3.50;;
3573;SDS011;1801;51.050;6.246;2024-02-04T13:31:30;4.77;;;2.57;;
3573;SDS011;1801;51.050;6.246;2024-02-04T13:33:56;4.30;;;2.87;;
3573;SDS011;1801;51.050;6.246;2024-02-04T13:36:22;2.57;;;2.03;;
3573;SDS011;1801;51.050;6.246;2024-02-04T13:38:47;3.23;;;2.40;;
3573;SDS011;1801;51.050;6.246;2024-02-04T13:41:12;2.30;;;1.77;;
3573;SDS011;1801;51.050;6.246;2024-02-04T13:43:37;4.43;;;2.50;;
3573;SDS011;1801;51.050;6.246;2024-02-04T13:46:03;7.83;;;2.50;;
3573;SDS011;1801;51.050;6.246;2024-02-04T13:48:28;5.80;;;2.20;;
3573;SDS011;1801;51.050;6.246;2024-02-04T13:50:53;10.03;;;2.90;;
3573;SDS011;1801;51.050;6.246;2024-02-04T13:53:19;3.17;;;2.40;;
3573;SDS011;1801;51.050;6.246;2024-02-04T13:55:44;3.00;;;2.10;;
3573;SDS011;1801;51.050;6.246;2024-02-04T13:58:10;5.90;;;2.63;;
3573;SDS011;1801;51.050;6.246;2024-02-04T14:00:35;2.50;;;2.30;;
3573;SDS011;1801;51.050;6.246;2024-02-04T14:03:02;1.90;;;1.70;;
3573;SDS011;1801;51.050;6.246;2024-02-04T14:05:27;3.70;;;1.73;;
3573;SDS011;1801;51.050;6.246;2024-02-04T14:07:52;2.60;;;2.33;;
3573;SDS011;1801;51.050;6.246;2024-02-04T14:10:17;3.07;;;2.33;;
3573;SDS011;1801;51.050;6.246;2024-02-04T14:12:43;5.07;;;2.67;;
3573;SDS011;1801;51.050;6.246;2024-02-04T14:15:10;2.50;;;1.93;;
3573;SDS011;1801;51.050;6.246;2024-02-04T14:17:35;3.33;;;1.97;;
3573;SDS011;1801;51.050;6.246;2024-02-04T14:20:00;6.10;;;2.33;;
3573;SDS011;1801;51.050;6.246;2024-02-04T14:22:26;2.30;;;2.10;;
3573;SDS011;1801;51.050;6.246;2024-02-04T14:24:52;2.93;;;1.73;;
3573;SDS011;1801;51.050;6.246;2024-02-04T14:27:18;7.93;;;2.43;;
3573;SDS011;1801;51.050;6.246;2024-02-04T14:29:43;2.07;;;1.90;;
3573;SDS011;1801;51.050;6.246;2024-02-04T14:32:08;2.60;;;2.17;;
3573;SDS011;1801;51.050;6.246;2024-02-04T14:34:34;2.27;;;2.07;;
3573;SDS011;1801;51.050;6.246;2024-02-04T14:36:59;3.43;;;2.07;;
3573;SDS011;1801;51.050;6.246;2024-02-04T14:39:24;2.30;;;2.10;;
3573;SDS011;1801;51.050;6.246;2024-02-04T14:41:50;3.20;;;2.30;;
3573;SDS011;1801;51.050;6.246;2024-02-04T14:44:15;3.17;;;2.40;;
3573;SDS011;1801;51.050;6.246;2024-02-04T14:46:40;4.70;;;2.00;;
3573;SDS011;1801;51.050;6.246;2024-02-04T14:49:06;3.70;;;2.40;;
3573;SDS011;1801;51.050;6.246;2024-02-04T14:51:32;3.87;;;2.50;;
3573;SDS011;1801;51.050;6.246;2024-02-04T14:53:57;5.23;;;2.37;;
3573;SDS011;1801;51.050;6.246;2024-02-04T14:56:23;6.30;;;2.00;;
3573;SDS011;1801;51.050;6.246;2024-02-04T14:58:48;2.90;;;2.10;;
3573;SDS011;1801;51.050;6.246;2024-02-04T15:01:14;3.17;;;2.60;;
3573;SDS011;1801;51.050;6.246;2024-02-04T15:03:39;4.87;;;1.83;;
3573;SDS011;1801;51.050;6.246;2024-02-04T15:06:04;2.63;;;2.33;;
3573;SDS011;1801;51.050;6.246;2024-02-04T15:08:29;4.80;;;2.07;;
3573;SDS011;1801;51.050;6.246;2024-02-04T15:10:55;3.73;;;2.10;;
3573;SDS011;1801;51.050;6.246;2024-02-04T15:13:21;3.40;;;2.30;;
3573;SDS011;1801;51.050;6.246;2024-02-04T15:15:46;3.57;;;2.80;;
3573;SDS011;1801;51.050;6.246;2024-02-04T15:18:11;5.10;;;2.07;;
3573;SDS011;1801;51.050;6.246;2024-02-04T15:20:37;3.10;;;2.10;;
3573;SDS011;1801;51.050;6.246;2024-02-04T15:23:02;2.90;;;2.10;;
3573;SDS011;1801;51.050;6.246;2024-02-04T15:25:28;5.50;;;1.63;;
3573;SDS011;1801;51.050;6.246;2024-02-04T15:27:54;2.43;;;1.70;;